sensor_id;sensor_type;location;lat;lon;timestamp;P1;durP1;ratioP1;P2;durP2;ratioP2
6388;SDS011;3227;42.654;23.360;2023-07-08T00:01:23;22.00;;;11.27;;
6388;SDS011;3227;42.654;23.360;2023-07-08T00:03:50;23.70;;;12.88;;
6388;SDS011;3227;42.654;23.360;2023-07-08T00:06:17;18.77;;;12.70;;
6388;SDS011;3227;42.654;23.360;2023-07-08T00:08:44;20.55;;;12.10;;
6388;SDS011;3227;42.654;23.360;2023-07-08T00:11:12;17.90;;;13.75;;
6388;SDS011;3227;42.654;23.360;2023-07-08T00:13:39;20.60;;;13.65;;
6388;SDS011;3227;42.654;23.360;2023-07-08T00:16:08;16.27;;;13.40;;
6388;SDS011;3227;42.654;23.360;2023-07-08T00:18:35;17.20;;;13.73;;
6388;SDS011;3227;42.654;23.360;2023-07-08T00:21:01;19.95;;;13.43;;
6388;SDS011;3227;42.654;23.360;2023-07-08T00:23:28;21.02;;;13.35;;
6388;SDS011;3227;42.654;23.360;2023-07-08T00:25:54;20.40;;;14.15;;
6388;SDS011;3227;42.654;23.360;2023-07-08T00:28:22;18.40;;;13.57;;
6388;SDS011;3227;42.654;23.360;2023-07-08T00:30:49;21.63;;;13.95;;
6388;SDS011;3227;42.654;23.360;2023-07-08T00:33:15;18.73;;;14.00;;
6388;SDS011;3227;42.654;23.360;2023-07-08T00:35:43;18.92;;;13.40;;
6388;SDS011;3227;42.654;23.360;2023-07-08T00:38:11;19.63;;;12.65;;
6388;SDS011;3227;42.654;23.360;2023-07-08T00:40:47;17.20;;;13.00;;
6388;SDS011;3227;42.654;23.360;2023-07-08T00:43:14;17.65;;;13.73;;
6388;SDS011;3227;42.654;23.360;2023-07-08T00:45:43;19.50;;;13.07;;
6388;SDS011;3227;42.654;23.360;2023-07-08T00:48:16;16.00;;;13.07;;
6388;SDS011;3227;42.654;23.360;2023-07-08T00:50:44;14.90;;;12.75;;
6388;SDS011;3227;42.654;23.360;2023-07-08T00:53:23;16.73;;;13.52;;
6388;SDS011;3227;42.654;23.360;2023-07-08T00:55:51;17.02;;;13.52;;
6388;SDS011;3227;42.654;23.360;2023-07-08T00:58:19;18.40;;;13.23;;
6388;SDS011;3227;42.654;23.360;2023-07-08T01:00:48;17.25;;;13.73;;
6388;SDS011;3227;42.654;23.360;2023-07-08T01:03:15;16.20;;;12.90;;
6388;SDS011;3227;42.654;23.360;2023-07-08T01:05:43;17.33;;;12.52;;
6388;SDS011;3227;42.654;23.360;2023-07-08T01:08:10;16.30;;;12.18;;
6388;SDS011;3227;42.654;23.360;2023-07-08T01:10:37;14.55;;;12.45;;
6388;SDS011;3227;42.654;23.360;2023-07-08T01:13:05;17.08;;;12.73;;
6388;SDS011;3227;42.654;23.360;2023-07-08T01:15:36;16.20;;;11.85;;
6388;SDS011;3227;42.654;23.360;2023-07-08T01:18:06;15.93;;;11.70;;
6388;SDS011;3227;42.654;23.360;2023-07-08T01:20:33;15.27;;;12.13;;
6388;SDS011;3227;42.654;23.360;2023-07-08T01:23:01;17.20;;;12.55;;
6388;SDS011;3227;42.654;23.360;2023-07-08T01:25:30;19.42;;;12.77;;
6388;SDS011;3227;42.654;23.360;2023-07-08T01:27:57;15.65;;;11.93;;
6388;SDS011;3227;42.654;23.360;2023-07-08T01:30:25;17.65;;;11.88;;
6388;SDS011;3227;42.654;23.360;2023-07-08T01:32:57;18.45;;;11.70;;
6388;SDS011;3227;42.654;23.360;2023-07-08T01:35:25;20.00;;;11.70;;
6388;SDS011;3227;42.654;23.360;2023-07-08T01:37:52;15.02;;;11.50;;
6388;SDS011;3227;42.654;23.360;2023-07-08T01:40:25;14.85;;;12.38;;
6388;SDS011;3227;42.654;23.360;2023-07-08T01:42:53;15.05;;;11.38;;
6388;SDS011;3227;42.654;23.360;2023-07-08T01:45:20;16.42;;;12.10;;
6388;SDS011;3227;42.654;23.360;2023-07-08T01:47:47;15.02;;;11.40;;
6388;SDS011;3227;42.654;23.360;2023-07-08T01:50:15;14.65;;;11.73;;
6388;SDS011;3227;42.654;23.360;2023-07-08T01:52:41;15.25;;;12.07;;
6388;SDS011;3227;42.654;23.360;2023-07-08T01:55:08;14.90;;;12.15;;
6388;SDS011;3227;42.654;23.360;2023-07-08T01:57:36;15.00;;;11.60;;
6388;SDS011;3227;42.654;23.360;2023-07-08T02:00:03;16.92;;;12.43;;
6388;SDS011;3227;42.654;23.360;2023-07-08T02:02:30;16.80;;;12.25;;
6388;SDS011;3227;42.654;23.360;2023-07-08T02:04:56;17.90;;;11.52;;
6388;SDS011;3227;42.654;23.360;2023-07-08T02:07:22;16.35;;;11.35;;
6388;SDS011;3227;42.654;23.360;2023-07-08T02:09:49;15.52;;;11.40;;
6388;SDS011;3227;42.654;23.360;2023-07-08T02:12:15;15.40;;;11.30;;
6388;SDS011;3227;42.654;23.360;2023-07-08T02:14:43;14.43;;;10.93;;
6388;SDS011;3227;42.654;23.360;2023-07-08T02:17:10;16.58;;;11.10;;
6388;SDS011;3227;42.654;23.360;2023-07-08T02:19:36;16.73;;;11.07;;
6388;SDS011;3227;42.654;23.360;2023-07-08T02:22:03;17.90;;;11.40;;
6388;SDS011;3227;42.654;23.360;2023-07-08T02:24:30;15.43;;;10.77;;
6388;SDS011;3227;42.654;23.360;2023-07-08T02:26:56;14.95;;;11.00;;
6388;SDS011;3227;42.654;23.360;2023-07-08T02:29:23;13.55;;;10.38;;
6388;SDS011;3227;42.654;23.360;2023-07-08T02:31:51;16.92;;;11.13;;
6388;SDS011;3227;42.654;23.360;2023-07-08T02:34:17;13.43;;;10.90;;
6388;SDS011;3227;42.654;23.360;2023-07-08T02:36:54;17.25;;;10.80;;
6388;SDS011;3227;42.654;23.360;2023-07-08T02:39:21;13.05;;;10.23;;
6388;SDS011;3227;42.654;23.360;2023-07-08T02:41:48;16.63;;;11.50;;
6388;SDS011;3227;42.654;23.360;2023-07-08T02:44:14;13.90;;;10.13;;
6388;SDS011;3227;42.654;23.360;2023-07-08T02:46:41;14.57;;;10.73;;
6388;SDS011;3227;42.654;23.360;2023-07-08T02:49:08;13.25;;;10.77;;
6388;SDS011;3227;42.654;23.360;2023-07-08T02:51:35;14.88;;;11.43;;
6388;SDS011;3227;42.654;23.360;2023-07-08T02:54:01;15.15;;;11.50;;
6388;SDS011;3227;42.654;23.360;2023-07-08T02:56:28;17.02;;;11.23;;
6388;SDS011;3227;42.654;23.360;2023-07-08T02:58:54;17.48;;;11.07;;
6388;SDS011;3227;42.654;23.360;2023-07-08T03:01:21;16.67;;;11.20;;
6388;SDS011;3227;42.654;23.360;2023-07-08T03:03:48;18.67;;;11.82;;
6388;SDS011;3227;42.654;23.360;2023-07-08T03:06:16;13.32;;;10.23;;
6388;SDS011;3227;42.654;23.360;2023-07-08T03:08:43;14.23;;;10.65;;
6388;SDS011;3227;42.654;23.360;2023-07-08T03:11:09;17.55;;;10.95;;
6388;SDS011;3227;42.654;23.360;2023-07-08T03:13:36;15.38;;;11.57;;
6388;SDS011;3227;42.654;23.360;2023-07-08T03:16:03;19.90;;;11.60;;
6388;SDS011;3227;42.654;23.360;2023-07-08T03:18:33;16.40;;;10.38;;
6388;SDS011;3227;42.654;23.360;2023-07-08T03:21:03;15.70;;;10.18;;
6388;SDS011;3227;42.654;23.360;2023-07-08T03:23:32;13.82;;;10.05;;
6388;SDS011;3227;42.654;23.360;2023-07-08T03:25:58;14.65;;;9.60;;
6388;SDS011;3227;42.654;23.360;2023-07-08T03:28:25;12.68;;;9.18;;
6388;SDS011;3227;42.654;23.360;2023-07-08T03:30:52;14.05;;;9.18;;
6388;SDS011;3227;42.654;23.360;2023-07-08T03:33:19;11.63;;;8.75;;
6388;SDS011;3227;42.654;23.360;2023-07-08T03:35:45;12.73;;;8.45;;
6388;SDS011;3227;42.654;23.360;2023-07-08T03:38:12;15.40;;;8.45;;
6388;SDS011;3227;42.654;23.360;2023-07-08T03:40:40;12.80;;;7.43;;
6388;SDS011;3227;42.654;23.360;2023-07-08T03:43:06;12.05;;;7.30;;
6388;SDS011;3227;42.654;23.360;2023-07-08T03:45:33;9.85;;;7.30;;
6388;SDS011;3227;42.654;23.360;2023-07-08T03:47:59;12.10;;;7.70;;
6388;SDS011;3227;42.654;23.360;2023-07-08T03:50:26;10.00;;;6.63;;
6388;SDS011;3227;42.654;23.360;2023-07-08T03:52:53;11.52;;;7.25;;
6388;SDS011;3227;42.654;23.360;2023-07-08T03:55:20;13.55;;;6.90;;
6388;SDS011;3227;42.654;23.360;2023-07-08T03:57:48;13.23;;;7.45;;
6388;SDS011;3227;42.654;23.360;2023-07-08T04:00:15;10.23;;;6.90;;
6388;SDS011;3227;42.654;23.360;2023-07-08T04:02:42;13.25;;;6.82;;
6388;SDS011;3227;42.654;23.360;2023-07-08T04:05:09;14.52;;;6.80;;
6388;SDS011;3227;42.654;23.360;2023-07-08T04:07:39;9.55;;;6.65;;
6388;SDS011;3227;42.654;23.360;2023-07-08T04:10:06;13.93;;;6.03;;
6388;SDS011;3227;42.654;23.360;2023-07-08T04:12:32;11.38;;;6.40;;
6388;SDS011;3227;42.654;23.360;2023-07-08T04:15:00;9.15;;;6.38;;
6388;SDS011;3227;42.654;23.360;2023-07-08T04:17:27;8.50;;;6.15;;
6388;SDS011;3227;42.654;23.360;2023-07-08T04:19:53;11.90;;;5.88;;
6388;SDS011;3227;42.654;23.360;2023-07-08T04:22:21;12.75;;;6.63;;
6388;SDS011;3227;42.654;23.360;2023-07-08T04:24:48;9.68;;;6.40;;
6388;SDS011;3227;42.654;23.360;2023-07-08T04:27:15;10.98;;;5.97;;
6388;SDS011;3227;42.654;23.360;2023-07-08T04:29:42;12.15;;;6.30;;
6388;SDS011;3227;42.654;23.360;2023-07-08T04:32:10;12.32;;;6.40;;
6388;SDS011;3227;42.654;23.360;2023-07-08T04:34:37;12.95;;;6.85;;
6388;SDS011;3227;42.654;23.360;2023-07-08T04:37:04;10.68;;;6.78;;
6388;SDS011;3227;42.654;23.360;2023-07-08T04:39:31;11.63;;;6.30;;
6388;SDS011;3227;42.654;23.360;2023-07-08T04:41:57;8.82;;;6.20;;
6388;SDS011;3227;42.654;23.360;2023-07-08T04:44:24;11.25;;;6.10;;
6388;SDS011;3227;42.654;23.360;2023-07-08T04:46:53;10.45;;;5.85;;
6388;SDS011;3227;42.654;23.360;2023-07-08T04:49:22;13.63;;;5.85;;
6388;SDS011;3227;42.654;23.360;2023-07-08T04:51:49;11.25;;;6.18;;
6388;SDS011;3227;42.654;23.360;2023-07-08T04:54:15;11.65;;;5.95;;
6388;SDS011;3227;42.654;23.360;2023-07-08T04:56:42;13.90;;;6.90;;
6388;SDS011;3227;42.654;23.360;2023-07-08T04:59:10;13.27;;;6.70;;
6388;SDS011;3227;42.654;23.360;2023-07-08T05:01:37;9.77;;;6.53;;
6388;SDS011;3227;42.654;23.360;2023-07-08T05:04:03;10.50;;;6.40;;
6388;SDS011;3227;42.654;23.360;2023-07-08T05:06:32;10.25;;;6.38;;
6388;SDS011;3227;42.654;23.360;2023-07-08T05:08:59;9.80;;;6.35;;
6388;SDS011;3227;42.654;23.360;2023-07-08T05:11:26;15.15;;;6.82;;
6388;SDS011;3227;42.654;23.360;2023-07-08T05:13:52;10.30;;;6.40;;
6388;SDS011;3227;42.654;23.360;2023-07-08T05:16:19;11.68;;;5.88;;
6388;SDS011;3227;42.654;23.360;2023-07-08T05:18:45;9.40;;;6.03;;
6388;SDS011;3227;42.654;23.360;2023-07-08T05:21:12;11.15;;;6.00;;
6388;SDS011;3227;42.654;23.360;2023-07-08T05:23:40;12.90;;;6.30;;
6388;SDS011;3227;42.654;23.360;2023-07-08T05:26:06;10.90;;;6.53;;
6388;SDS011;3227;42.654;23.360;2023-07-08T05:28:33;10.20;;;6.35;;
6388;SDS011;3227;42.654;23.360;2023-07-08T05:31:00;13.27;;;6.07;;
6388;SDS011;3227;42.654;23.360;2023-07-08T05:33:27;10.02;;;5.90;;
6388;SDS011;3227;42.654;23.360;2023-07-08T05:35:54;11.77;;;6.53;;
6388;SDS011;3227;42.654;23.360;2023-07-08T05:38:21;13.75;;;6.15;;
6388;SDS011;3227;42.654;23.360;2023-07-08T05:40:49;11.95;;;6.38;;
6388;SDS011;3227;42.654;23.360;2023-07-08T05:43:16;10.52;;;6.07;;
6388;SDS011;3227;42.654;23.360;2023-07-08T05:45:43;10.57;;;5.75;;
6388;SDS011;3227;42.654;23.360;2023-07-08T05:48:09;10.57;;;5.88;;
6388;SDS011;3227;42.654;23.360;2023-07-08T05:50:36;10.73;;;5.60;;
6388;SDS011;3227;42.654;23.360;2023-07-08T05:53:02;13.15;;;6.35;;
6388;SDS011;3227;42.654;23.360;2023-07-08T05:55:29;11.73;;;5.80;;
6388;SDS011;3227;42.654;23.360;2023-07-08T05:57:58;11.25;;;6.35;;
6388;SDS011;3227;42.654;23.360;2023-07-08T06:00:25;10.10;;;6.07;;
6388;SDS011;3227;42.654;23.360;2023-07-08T06:02:51;9.35;;;5.60;;
6388;SDS011;3227;42.654;23.360;2023-07-08T06:05:18;9.35;;;5.50;;
6388;SDS011;3227;42.654;23.360;2023-07-08T06:07:44;10.50;;;5.93;;
6388;SDS011;3227;42.654;23.360;2023-07-08T06:10:11;15.52;;;6.25;;
6388;SDS011;3227;42.654;23.360;2023-07-08T06:12:37;12.93;;;6.20;;
6388;SDS011;3227;42.654;23.360;2023-07-08T06:15:06;9.88;;;6.05;;
6388;SDS011;3227;42.654;23.360;2023-07-08T06:17:32;9.75;;;6.25;;
6388;SDS011;3227;42.654;23.360;2023-07-08T06:19:59;12.90;;;6.20;;
6388;SDS011;3227;42.654;23.360;2023-07-08T06:22:27;10.13;;;6.07;;
6388;SDS011;3227;42.654;23.360;2023-07-08T06:24:53;11.48;;;6.60;;
6388;SDS011;3227;42.654;23.360;2023-07-08T06:27:20;12.05;;;6.97;;
6388;SDS011;3227;42.654;23.360;2023-07-08T06:29:46;11.05;;;6.78;;
6388;SDS011;3227;42.654;23.360;2023-07-08T06:32:14;9.45;;;6.78;;
6388;SDS011;3227;42.654;23.360;2023-07-08T06:34:40;10.05;;;6.82;;
6388;SDS011;3227;42.654;23.360;2023-07-08T06:37:07;11.95;;;7.18;;
6388;SDS011;3227;42.654;23.360;2023-07-08T06:39:33;12.43;;;7.10;;
6388;SDS011;3227;42.654;23.360;2023-07-08T06:42:00;12.18;;;6.65;;
6388;SDS011;3227;42.654;23.360;2023-07-08T06:44:26;12.13;;;7.03;;
6388;SDS011;3227;42.654;23.360;2023-07-08T06:46:53;11.25;;;7.25;;
6388;SDS011;3227;42.654;23.360;2023-07-08T06:49:21;17.33;;;6.68;;
6388;SDS011;3227;42.654;23.360;2023-07-08T06:51:48;9.40;;;7.00;;
6388;SDS011;3227;42.654;23.360;2023-07-08T06:54:14;11.02;;;7.22;;
6388;SDS011;3227;42.654;23.360;2023-07-08T06:56:41;14.13;;;7.03;;
6388;SDS011;3227;42.654;23.360;2023-07-08T06:59:08;13.43;;;7.20;;
6388;SDS011;3227;42.654;23.360;2023-07-08T07:01:34;12.70;;;6.90;;
6388;SDS011;3227;42.654;23.360;2023-07-08T07:04:02;11.77;;;6.25;;
6388;SDS011;3227;42.654;23.360;2023-07-08T07:06:30;11.70;;;6.97;;
6388;SDS011;3227;42.654;23.360;2023-07-08T07:08:56;13.95;;;6.30;;
6388;SDS011;3227;42.654;23.360;2023-07-08T07:11:22;10.40;;;6.78;;
6388;SDS011;3227;42.654;23.360;2023-07-08T07:13:49;11.88;;;6.90;;
6388;SDS011;3227;42.654;23.360;2023-07-08T07:16:16;11.75;;;6.55;;
6388;SDS011;3227;42.654;23.360;2023-07-08T07:18:42;11.32;;;6.05;;
6388;SDS011;3227;42.654;23.360;2023-07-08T07:21:09;19.35;;;6.00;;
6388;SDS011;3227;42.654;23.360;2023-07-08T07:23:37;11.77;;;6.20;;
6388;SDS011;3227;42.654;23.360;2023-07-08T07:26:04;11.88;;;6.70;;
6388;SDS011;3227;42.654;23.360;2023-07-08T07:28:30;10.73;;;6.68;;
6388;SDS011;3227;42.654;23.360;2023-07-08T07:30:57;11.35;;;7.70;;
6388;SDS011;3227;42.654;23.360;2023-07-08T07:33:24;12.00;;;7.55;;
6388;SDS011;3227;42.654;23.360;2023-07-08T07:35:51;11.07;;;7.35;;
6388;SDS011;3227;42.654;23.360;2023-07-08T07:38:17;10.85;;;7.35;;
6388;SDS011;3227;42.654;23.360;2023-07-08T07:40:45;13.32;;;6.70;;
6388;SDS011;3227;42.654;23.360;2023-07-08T07:43:12;10.65;;;6.85;;
6388;SDS011;3227;42.654;23.360;2023-07-08T07:45:38;11.32;;;6.75;;
6388;SDS011;3227;42.654;23.360;2023-07-08T07:48:05;12.85;;;6.47;;
6388;SDS011;3227;42.654;23.360;2023-07-08T07:50:31;10.35;;;6.47;;
6388;SDS011;3227;42.654;23.360;2023-07-08T07:52:59;10.43;;;6.28;;
6388;SDS011;3227;42.654;23.360;2023-07-08T07:55:25;10.00;;;6.15;;
6388;SDS011;3227;42.654;23.360;2023-07-08T07:57:53;7.78;;;5.45;;
6388;SDS011;3227;42.654;23.360;2023-07-08T08:00:20;10.25;;;6.50;;
6388;SDS011;3227;42.654;23.360;2023-07-08T08:02:46;8.63;;;6.22;;
6388;SDS011;3227;42.654;23.360;2023-07-08T08:05:13;8.75;;;6.18;;
6388;SDS011;3227;42.654;23.360;2023-07-08T08:07:40;12.20;;;6.30;;
6388;SDS011;3227;42.654;23.360;2023-07-08T08:10:07;10.15;;;7.18;;
6388;SDS011;3227;42.654;23.360;2023-07-08T08:12:34;12.93;;;6.80;;
6388;SDS011;3227;42.654;23.360;2023-07-08T08:15:02;13.60;;;6.22;;
6388;SDS011;3227;42.654;23.360;2023-07-08T08:17:28;10.55;;;6.28;;
6388;SDS011;3227;42.654;23.360;2023-07-08T08:19:55;10.65;;;6.00;;
6388;SDS011;3227;42.654;23.360;2023-07-08T08:22:21;12.18;;;6.47;;
6388;SDS011;3227;42.654;23.360;2023-07-08T08:24:48;10.65;;;6.50;;
6388;SDS011;3227;42.654;23.360;2023-07-08T08:27:15;11.93;;;6.95;;
6388;SDS011;3227;42.654;23.360;2023-07-08T08:29:41;13.85;;;7.22;;
6388;SDS011;3227;42.654;23.360;2023-07-08T08:32:09;14.25;;;7.03;;
6388;SDS011;3227;42.654;23.360;2023-07-08T08:34:36;10.75;;;6.70;;
6388;SDS011;3227;42.654;23.360;2023-07-08T08:37:02;11.88;;;6.45;;
6388;SDS011;3227;42.654;23.360;2023-07-08T08:39:29;9.45;;;6.60;;
6388;SDS011;3227;42.654;23.360;2023-07-08T08:41:56;12.38;;;6.72;;
6388;SDS011;3227;42.654;23.360;2023-07-08T08:44:24;11.82;;;7.30;;
6388;SDS011;3227;42.654;23.360;2023-07-08T08:46:51;10.50;;;6.45;;
6388;SDS011;3227;42.654;23.360;2023-07-08T08:49:23;11.63;;;6.90;;
6388;SDS011;3227;42.654;23.360;2023-07-08T08:51:51;10.82;;;6.78;;
6388;SDS011;3227;42.654;23.360;2023-07-08T08:54:18;11.52;;;6.97;;
6388;SDS011;3227;42.654;23.360;2023-07-08T08:56:46;10.23;;;6.53;;
6388;SDS011;3227;42.654;23.360;2023-07-08T08:59:16;11.10;;;6.63;;
6388;SDS011;3227;42.654;23.360;2023-07-08T09:01:45;10.38;;;7.00;;
6388;SDS011;3227;42.654;23.360;2023-07-08T09:04:13;8.82;;;6.53;;
6388;SDS011;3227;42.654;23.360;2023-07-08T09:06:43;9.05;;;5.90;;
6388;SDS011;3227;42.654;23.360;2023-07-08T09:09:13;12.40;;;7.13;;
6388;SDS011;3227;42.654;23.360;2023-07-08T09:11:43;11.45;;;7.07;;
6388;SDS011;3227;42.654;23.360;2023-07-08T09:14:12;10.27;;;6.97;;
6388;SDS011;3227;42.654;23.360;2023-07-08T09:16:41;11.43;;;6.80;;
6388;SDS011;3227;42.654;23.360;2023-07-08T09:19:11;10.93;;;7.10;;
6388;SDS011;3227;42.654;23.360;2023-07-08T09:21:40;10.32;;;6.15;;
6388;SDS011;3227;42.654;23.360;2023-07-08T09:24:10;10.40;;;6.50;;
6388;SDS011;3227;42.654;23.360;2023-07-08T09:26:39;10.00;;;6.50;;
6388;SDS011;3227;42.654;23.360;2023-07-08T09:29:08;12.98;;;6.50;;
6388;SDS011;3227;42.654;23.360;2023-07-08T09:31:37;9.07;;;6.15;;
6388;SDS011;3227;42.654;23.360;2023-07-08T09:34:05;10.15;;;6.35;;
6388;SDS011;3227;42.654;23.360;2023-07-08T09:36:32;10.60;;;7.47;;
6388;SDS011;3227;42.654;23.360;2023-07-08T09:38:58;9.38;;;7.03;;
6388;SDS011;3227;42.654;23.360;2023-07-08T09:41:31;8.27;;;5.93;;
6388;SDS011;3227;42.654;23.360;2023-07-08T09:44:02;10.73;;;6.38;;
6388;SDS011;3227;42.654;23.360;2023-07-08T09:46:29;9.15;;;6.30;;
6388;SDS011;3227;42.654;23.360;2023-07-08T09:49:04;8.75;;;6.10;;
6388;SDS011;3227;42.654;23.360;2023-07-08T09:51:35;10.18;;;6.85;;
6388;SDS011;3227;42.654;23.360;2023-07-08T09:54:01;10.38;;;7.15;;
6388;SDS011;3227;42.654;23.360;2023-07-08T09:56:34;10.25;;;5.78;;
6388;SDS011;3227;42.654;23.360;2023-07-08T09:59:01;10.25;;;6.63;;
6388;SDS011;3227;42.654;23.360;2023-07-08T10:01:28;11.27;;;5.97;;
6388;SDS011;3227;42.654;23.360;2023-07-08T10:03:57;10.18;;;6.70;;
6388;SDS011;3227;42.654;23.360;2023-07-08T10:06:27;9.52;;;5.65;;
6388;SDS011;3227;42.654;23.360;2023-07-08T10:08:54;10.65;;;6.07;;
6388;SDS011;3227;42.654;23.360;2023-07-08T10:11:27;10.45;;;5.60;;
6388;SDS011;3227;42.654;23.360;2023-07-08T10:13:56;8.38;;;5.22;;
6388;SDS011;3227;42.654;23.360;2023-07-08T10:16:24;9.73;;;5.70;;
6388;SDS011;3227;42.654;23.360;2023-07-08T10:18:51;8.98;;;5.30;;
6388;SDS011;3227;42.654;23.360;2023-07-08T10:21:22;9.82;;;5.85;;
6388;SDS011;3227;42.654;23.360;2023-07-08T10:23:51;7.93;;;5.07;;
6388;SDS011;3227;42.654;23.360;2023-07-08T10:26:22;8.55;;;5.65;;
6388;SDS011;3227;42.654;23.360;2023-07-08T10:28:53;8.45;;;5.80;;
6388;SDS011;3227;42.654;23.360;2023-07-08T10:31:27;8.98;;;5.43;;
6388;SDS011;3227;42.654;23.360;2023-07-08T10:34:03;9.18;;;5.82;;
6388;SDS011;3227;42.654;23.360;2023-07-08T10:36:38;8.65;;;5.45;;
6388;SDS011;3227;42.654;23.360;2023-07-08T10:39:16;9.55;;;5.70;;
6388;SDS011;3227;42.654;23.360;2023-07-08T10:41:48;7.53;;;5.00;;
6388;SDS011;3227;42.654;23.360;2023-07-08T10:44:17;9.85;;;5.22;;
6388;SDS011;3227;42.654;23.360;2023-07-08T10:46:48;9.27;;;5.00;;
6388;SDS011;3227;42.654;23.360;2023-07-08T10:49:31;8.23;;;5.25;;
6388;SDS011;3227;42.654;23.360;2023-07-08T10:52:06;8.60;;;5.05;;
6388;SDS011;3227;42.654;23.360;2023-07-08T10:54:46;10.57;;;5.05;;
6388;SDS011;3227;42.654;23.360;2023-07-08T10:57:20;9.27;;;4.78;;
6388;SDS011;3227;42.654;23.360;2023-07-08T10:59:52;7.80;;;4.80;;
6388;SDS011;3227;42.654;23.360;2023-07-08T11:05:09;8.20;;;4.72;;
6388;SDS011;3227;42.654;23.360;2023-07-08T11:07:38;9.60;;;4.95;;
6388;SDS011;3227;42.654;23.360;2023-07-08T11:10:07;9.52;;;5.45;;
6388;SDS011;3227;42.654;23.360;2023-07-08T11:12:36;8.85;;;4.82;;
6388;SDS011;3227;42.654;23.360;2023-07-08T11:15:06;7.72;;;4.65;;
6388;SDS011;3227;42.654;23.360;2023-07-08T11:17:40;8.15;;;5.13;;
6388;SDS011;3227;42.654;23.360;2023-07-08T11:20:13;7.95;;;4.95;;
6388;SDS011;3227;42.654;23.360;2023-07-08T11:22:43;12.23;;;4.53;;
6388;SDS011;3227;42.654;23.360;2023-07-08T11:25:20;8.35;;;5.13;;
6388;SDS011;3227;42.654;23.360;2023-07-08T11:27:48;8.80;;;5.00;;
6388;SDS011;3227;42.654;23.360;2023-07-08T11:30:15;10.53;;;5.10;;
6388;SDS011;3227;42.654;23.360;2023-07-08T11:32:42;6.85;;;4.53;;
6388;SDS011;3227;42.654;23.360;2023-07-08T11:35:16;7.90;;;5.28;;
6388;SDS011;3227;42.654;23.360;2023-07-08T11:37:45;7.20;;;4.68;;
6388;SDS011;3227;42.654;23.360;2023-07-08T11:40:17;10.13;;;5.63;;
6388;SDS011;3227;42.654;23.360;2023-07-08T11:42:47;9.23;;;5.25;;
6388;SDS011;3227;42.654;23.360;2023-07-08T11:45:19;8.05;;;4.90;;
6388;SDS011;3227;42.654;23.360;2023-07-08T11:47:49;8.15;;;4.80;;
6388;SDS011;3227;42.654;23.360;2023-07-08T11:50:19;8.18;;;4.68;;
6388;SDS011;3227;42.654;23.360;2023-07-08T11:52:53;7.82;;;5.13;;
6388;SDS011;3227;42.654;23.360;2023-07-08T11:55:21;9.10;;;4.55;;
6388;SDS011;3227;42.654;23.360;2023-07-08T11:57:50;8.02;;;4.93;;
6388;SDS011;3227;42.654;23.360;2023-07-08T12:00:22;9.52;;;5.00;;
6388;SDS011;3227;42.654;23.360;2023-07-08T12:02:50;8.98;;;4.70;;
6388;SDS011;3227;42.654;23.360;2023-07-08T12:05:28;7.90;;;5.00;;
6388;SDS011;3227;42.654;23.360;2023-07-08T12:07:55;10.45;;;5.47;;
6388;SDS011;3227;42.654;23.360;2023-07-08T12:10:25;7.35;;;4.85;;
6388;SDS011;3227;42.654;23.360;2023-07-08T12:12:52;7.43;;;4.72;;
6388;SDS011;3227;42.654;23.360;2023-07-08T12:15:20;8.13;;;4.50;;
6388;SDS011;3227;42.654;23.360;2023-07-08T12:17:48;7.05;;;4.47;;
6388;SDS011;3227;42.654;23.360;2023-07-08T12:20:17;10.00;;;4.80;;
6388;SDS011;3227;42.654;23.360;2023-07-08T12:22:45;8.20;;;4.97;;
6388;SDS011;3227;42.654;23.360;2023-07-08T12:25:13;8.82;;;5.03;;
6388;SDS011;3227;42.654;23.360;2023-07-08T12:27:41;10.55;;;4.72;;
6388;SDS011;3227;42.654;23.360;2023-07-08T12:30:08;8.35;;;4.30;;
6388;SDS011;3227;42.654;23.360;2023-07-08T12:32:35;8.57;;;5.20;;
6388;SDS011;3227;42.654;23.360;2023-07-08T12:35:02;15.18;;;4.53;;
6388;SDS011;3227;42.654;23.360;2023-07-08T12:37:31;8.07;;;4.60;;
6388;SDS011;3227;42.654;23.360;2023-07-08T12:39:59;7.28;;;4.40;;
6388;SDS011;3227;42.654;23.360;2023-07-08T12:42:29;8.45;;;4.57;;
6388;SDS011;3227;42.654;23.360;2023-07-08T12:44:56;7.32;;;4.35;;
6388;SDS011;3227;42.654;23.360;2023-07-08T12:47:23;8.07;;;4.72;;
6388;SDS011;3227;42.654;23.360;2023-07-08T12:49:49;9.52;;;5.05;;
6388;SDS011;3227;42.654;23.360;2023-07-08T12:52:21;6.60;;;4.03;;
6388;SDS011;3227;42.654;23.360;2023-07-08T12:54:48;8.38;;;4.75;;
6388;SDS011;3227;42.654;23.360;2023-07-08T12:57:16;6.95;;;4.00;;
6388;SDS011;3227;42.654;23.360;2023-07-08T12:59:43;10.95;;;4.25;;
6388;SDS011;3227;42.654;23.360;2023-07-08T13:02:14;9.40;;;4.00;;
6388;SDS011;3227;42.654;23.360;2023-07-08T13:04:41;8.27;;;4.22;;
6388;SDS011;3227;42.654;23.360;2023-07-08T13:07:09;8.38;;;4.15;;
6388;SDS011;3227;42.654;23.360;2023-07-08T13:09:43;6.50;;;3.85;;
6388;SDS011;3227;42.654;23.360;2023-07-08T13:12:12;9.50;;;4.45;;
6388;SDS011;3227;42.654;23.360;2023-07-08T13:14:41;7.15;;;4.03;;
6388;SDS011;3227;42.654;23.360;2023-07-08T13:17:10;6.85;;;3.75;;
6388;SDS011;3227;42.654;23.360;2023-07-08T13:19:37;8.07;;;4.05;;
6388;SDS011;3227;42.654;23.360;2023-07-08T13:22:04;7.53;;;3.92;;
6388;SDS011;3227;42.654;23.360;2023-07-08T13:24:31;9.35;;;3.83;;
6388;SDS011;3227;42.654;23.360;2023-07-08T13:26:59;8.68;;;3.80;;
6388;SDS011;3227;42.654;23.360;2023-07-08T13:29:25;7.60;;;4.20;;
6388;SDS011;3227;42.654;23.360;2023-07-08T13:31:55;8.68;;;4.13;;
6388;SDS011;3227;42.654;23.360;2023-07-08T13:34:23;8.48;;;3.60;;
6388;SDS011;3227;42.654;23.360;2023-07-08T13:36:50;11.98;;;4.28;;
6388;SDS011;3227;42.654;23.360;2023-07-08T13:39:19;8.07;;;3.97;;
6388;SDS011;3227;42.654;23.360;2023-07-08T13:41:47;9.38;;;3.83;;
6388;SDS011;3227;42.654;23.360;2023-07-08T13:44:13;6.80;;;4.00;;
6388;SDS011;3227;42.654;23.360;2023-07-08T13:46:44;8.05;;;3.85;;
6388;SDS011;3227;42.654;23.360;2023-07-08T13:49:13;6.03;;;3.35;;
6388;SDS011;3227;42.654;23.360;2023-07-08T13:51:40;10.35;;;4.07;;
6388;SDS011;3227;42.654;23.360;2023-07-08T13:54:09;10.73;;;3.70;;
6388;SDS011;3227;42.654;23.360;2023-07-08T13:56:39;7.22;;;3.80;;
6388;SDS011;3227;42.654;23.360;2023-07-08T13:59:07;8.40;;;3.65;;
6388;SDS011;3227;42.654;23.360;2023-07-08T14:01:35;8.27;;;3.45;;
6388;SDS011;3227;42.654;23.360;2023-07-08T14:04:03;6.70;;;3.70;;
6388;SDS011;3227;42.654;23.360;2023-07-08T14:06:32;8.17;;;3.80;;
6388;SDS011;3227;42.654;23.360;2023-07-08T14:09:01;6.68;;;4.03;;
6388;SDS011;3227;42.654;23.360;2023-07-08T14:11:30;7.22;;;4.28;;
6388;SDS011;3227;42.654;23.360;2023-07-08T14:13:56;7.18;;;3.85;;
6388;SDS011;3227;42.654;23.360;2023-07-08T14:16:23;6.03;;;3.53;;
6388;SDS011;3227;42.654;23.360;2023-07-08T14:18:52;6.90;;;3.50;;
6388;SDS011;3227;42.654;23.360;2023-07-08T14:21:18;10.30;;;4.50;;
6388;SDS011;3227;42.654;23.360;2023-07-08T14:23:46;8.30;;;3.78;;
6388;SDS011;3227;42.654;23.360;2023-07-08T14:26:13;14.82;;;4.15;;
6388;SDS011;3227;42.654;23.360;2023-07-08T14:28:39;7.90;;;3.60;;
6388;SDS011;3227;42.654;23.360;2023-07-08T14:31:08;7.80;;;4.00;;
6388;SDS011;3227;42.654;23.360;2023-07-08T14:33:35;7.68;;;4.03;;
6388;SDS011;3227;42.654;23.360;2023-07-08T14:36:02;7.63;;;4.00;;
6388;SDS011;3227;42.654;23.360;2023-07-08T14:38:28;9.50;;;3.88;;
6388;SDS011;3227;42.654;23.360;2023-07-08T14:40:56;7.40;;;3.60;;
6388;SDS011;3227;42.654;23.360;2023-07-08T14:43:24;6.38;;;3.47;;
6388;SDS011;3227;42.654;23.360;2023-07-08T14:45:53;8.10;;;4.15;;
6388;SDS011;3227;42.654;23.360;2023-07-08T14:48:20;8.40;;;3.88;;
6388;SDS011;3227;42.654;23.360;2023-07-08T14:50:47;8.77;;;4.13;;
6388;SDS011;3227;42.654;23.360;2023-07-08T14:53:13;7.05;;;3.70;;
6388;SDS011;3227;42.654;23.360;2023-07-08T14:55:40;6.35;;;3.55;;
6388;SDS011;3227;42.654;23.360;2023-07-08T14:58:09;8.70;;;3.63;;